Who's Online

We have 1 guest online

GK Weather

An error occured during parsing XML data. Please try again.

Aviation WX

[source: ADDS]
METAR
KIAD 171752Z 14005G14KT 10SM FEW040 SCT250 11/M02 A3060 RMK AO2 SLP362 60001 T01111022 10111 20022 58016 =
TAF
KIAD 171726Z 1718/1824 12009KT P6SM FEW050 SCT250 FM180500 11005KT P6SM SCT050 BKN250 FM181100 04004KT P6SM BKN050 FM181700 11005KT P6SM BKN130 =
SR / SS: 00:12 / 13:29 UTC (Washington-Dulles 2014-04-17)

JoomlaWatch Agent

Home Links
We are regularly out on the Web. When we find a great site we list it.